Home   Weather   København   Past weeks
Flag for Denmark

Past Weather in København, Denmark — Yesterday and Last 2 Weeks

Currently: 64 °F. Mild. (Weather station: Koebenhavn-Kastrup Airport, Denmark). See more current weather

Past Weather in København — Graph

°F

København Temperature Yesterday

Maximum temperature yesterday: 77 °F (at 1:50 pm)
Minimum temperature yesterday: 64 °F (at 11:50 pm)
Average temperature yesterday: 71 °F

High & Low Weather Summary for the Past Weeks

 TemperatureHumidityPressure
High84 °F (Jul 14, 2:50 pm)100% (Jul 24, 4:50 am)30.15 "Hg (Jul 24, 4:50 am)
Low55 °F (Jul 22, 2:50 am)48% (Jul 17, 6:20 pm)29.80 "Hg (Jul 14, 6:20 pm)
Average70 °F72%29.98 "Hg
* Reported Jul 12 11:20 pm — Jul 27 11:50 pm, København. Weather by CustomWeather, © 2021

Note: Actual official high and low records may vary slightly from our data, if they occured in-between our weather recording intervals... More about our weather records

København Weather History for the Previous 24 Hours

Scroll right to see more
 ConditionsComfort  
Time TempWeatherWind HumidityBarometerVisibility
11:50 pm
Tue, Jul 27
64 °FMild.6 mph88%29.83 "HgN/A
11:20 pm66 °FPassing clouds.7 mph83%29.83 "HgN/A
10:50 pm68 °FPassing clouds.8 mph83%29.83 "HgN/A
10:20 pm66 °FMild.9 mph83%29.80 "HgN/A
9:50 pm68 °FPassing clouds.8 mph73%29.83 "HgN/A
8:50 pm70 °FMild.10 mph73%29.80 "HgN/A
8:20 pm72 °FPartly sunny.12 mph65%29.80 "HgN/A
7:50 pm73 °FMore clouds than sun.16 mph61%29.80 "HgN/A
7:20 pm75 °FPartly sunny.14 mph61%29.80 "HgN/A
6:50 pm75 °FScattered clouds.14 mph61%29.80 "HgN/A
6:20 pm77 °FWarm.13 mph57%29.80 "HgN/A
5:50 pm77 °FPassing clouds.10 mph61%29.80 "HgN/A
5:20 pm77 °FPassing clouds.7 mph61%29.80 "HgN/A
4:50 pm77 °FBroken clouds.8 mph61%29.80 "HgN/A
4:20 pm77 °FScattered clouds.7 mph61%29.80 "HgN/A
3:50 pm77 °FScattered clouds.7 mph61%29.80 "HgN/A
3:20 pm73 °FBroken clouds.7 mph61%29.80 "HgN/A
2:50 pm75 °FBroken clouds.6 mph61%29.80 "HgN/A
2:20 pm73 °FBroken clouds.12 mph78%29.80 "HgN/A
1:50 pm77 °FPartly sunny.10 mph74%29.80 "HgN/A
1:20 pm75 °FPartly sunny.8 mph74%29.80 "HgN/A
12:50 pm73 °FScattered clouds.5 mph83%29.80 "HgN/A
12:20 pm73 °FScattered clouds.6 mph83%29.80 "HgN/A
11:50 am72 °FScattered clouds.5 mph83%29.80 "HgN/A
11:20 am72 °FScattered clouds.5 mph83%29.80 "HgN/A
10:50 am72 °FScattered clouds.5 mph83%29.83 "HgN/A
10:20 am70 °FScattered clouds.6 mph94%29.80 "HgN/A
9:50 am70 °FPassing clouds.7 mph94%29.80 "HgN/A
9:20 am70 °FPassing clouds.7 mph88%29.80 "HgN/A
8:50 am72 °FMild.6 mph83%29.80 "HgN/A
8:20 am72 °FPassing clouds.5 mph83%29.80 "HgN/A
7:50 am70 °FPassing clouds.2 mph88%29.80 "HgN/A
7:20 am68 °FMild.3 mph94%29.80 "HgN/A
6:50 am68 °FPassing clouds.2 mph94%29.80 "HgN/A
6:20 am68 °FPartly sunny.5 mph94%29.80 "HgN/A
5:50 am66 °FPartly sunny.3 mph94%29.80 "HgN/A
5:20 am66 °FClear.2 mph94%29.80 "Hg6 mi
4:50 am66 °FClear.No wind94%29.80 "Hg6 mi
4:21 am66 °FClear.3 mph94%29.83 "Hg10 mi
3:50 am66 °FMild.3 mph94%29.83 "HgN/A
3:20 am68 °FPassing clouds.5 mph88%29.83 "HgN/A
2:50 am68 °FPassing clouds.3 mph88%29.83 "HgN/A
2:20 am68 °FMild.3 mph88%29.83 "HgN/A
1:50 am68 °FPassing clouds.5 mph88%29.83 "HgN/A
1:20 am68 °FPassing clouds.3 mph88%29.83 "HgN/A
Weather by CustomWeather, © 2021

See weather overview